Time;durP1;ratioP1;P1;durP2;ratioP2;P2;SDS_P1;SDS_P2;PMS_P1;PMS_P2;Temp;Humidity;BMP_temperature;BMP_pressure;BME280_temperature;BME280_humidity;BME280_pressure;Samples;Min_cycle;Max_cycle;Signal;HPM_P1;HPM_P2
2023/03/26 07:38:31;;;;;;;1.33;1.33;;;9.10;99.90;11.20;99759.00;;;;5062889;28;21101;-68
2023/03/26 07:41:16;;;;;;;2.10;1.30;;;8.90;99.90;11.30;99749.00;;;;5068907;28;20205;-68
2023/03/26 07:43:51;;;;;;;0.90;0.90;;;9.00;99.90;11.30;99755.00;;;;5052266;28;20642;-68
2023/03/26 07:46:33;;;;;;;0.90;0.90;;;9.00;99.90;11.20;99751.00;;;;5058429;28;20225;-68
2023/03/26 07:49:20;;;;;;;0.90;0.90;;;9.00;99.90;11.50;99753.00;;;;5058291;28;20232;-68
2023/03/26 07:51:53;;;;;;;0.70;0.70;;;9.10;99.90;11.90;99753.00;;;;5085835;28;20194;-68
2023/03/26 07:54:22;;;;;;;1.10;1.10;;;9.20;99.90;10.90;99751.00;;;;5070259;28;20193;-67
2023/03/26 07:57:05;;;;;;;1.20;1.20;;;9.10;99.90;10.80;99713.00;;;;5054899;28;20227;-68
2023/03/26 08:00:07;;;;;;;1.20;1.20;;;9.00;99.90;11.30;99744.00;;;;5052167;28;20222;-73
2023/03/26 08:03:10;;;;;;;1.40;1.40;;;9.00;99.90;12.10;99751.00;;;;5069342;28;20647;-69
2023/03/26 08:06:25;;;;;;;1.50;1.50;;;9.40;99.90;10.60;99744.00;;;;5061211;28;20182;-68
2023/03/26 08:09:41;;;;;;;1.20;1.20;;;9.20;99.90;11.10;99737.00;;;;5059067;28;20193;-67
2023/03/26 08:12:23;;;;;;;2.03;1.93;;;8.90;99.90;10.60;99736.00;;;;5084394;28;20187;-68
2023/03/26 08:15:20;;;;;;;1.43;1.43;;;8.90;99.90;10.90;99731.00;;;;5068532;28;20704;-69
2023/03/26 08:18:26;;;;;;;1.33;1.33;;;8.80;99.90;11.20;99737.00;;;;5064305;28;20234;-68
2023/03/26 08:21:18;;;;;;;2.13;2.03;;;8.80;99.90;10.50;99736.00;;;;5066209;28;20192;-68
2023/03/26 08:24:15;;;;;;;1.40;1.40;;;8.80;99.90;10.80;99736.00;;;;5056841;28;20582;-68
2023/03/26 08:27:12;;;;;;;1.30;1.30;;;8.90;99.90;10.90;99738.00;;;;5098663;28;20241;-68
2023/03/26 08:30:08;;;;;;;1.40;1.40;;;8.80;99.90;10.10;99728.00;;;;5063479;28;20513;-67
2023/03/26 08:32:59;;;;;;;1.30;1.30;;;8.70;99.90;9.40;99724.00;;;;5052031;28;20188;-67
2023/03/26 08:35:53;;;;;;;1.40;1.40;;;8.30;99.90;10.50;99719.00;;;;5065393;28;20182;-69
2023/03/26 08:38:56;;;;;;;1.20;1.20;;;8.50;99.90;11.50;99724.00;;;;5067453;28;20195;-68
2023/03/26 08:41:46;;;;;;;1.30;1.30;;;8.90;99.90;11.50;99728.00;;;;5060287;28;20721;-68
2023/03/26 08:44:48;;;;;;;1.40;1.40;;;9.10;99.90;10.90;99704.00;;;;5057007;28;20181;-68
2023/03/26 08:47:36;;;;;;;2.17;2.07;;;9.10;99.90;11.00;99734.00;;;;5068912;28;20198;-68
2023/03/26 08:50:25;;;;;;;9.63;3.03;;;8.90;99.90;11.10;99740.00;;;;5052375;28;20192;-68
2023/03/26 08:53:39;;;;;;;1.20;1.20;;;9.00;99.90;11.10;99746.00;;;;5049600;28;20194;-67
2023/03/26 08:56:59;;;;;;;1.30;1.30;;;9.00;99.90;11.50;99745.00;;;;5053175;28;20215;-70
2023/03/26 09:00:04;;;;;;;1.10;1.10;;;9.10;99.90;10.20;99709.00;;;;5049329;28;20190;-70
2023/03/26 09:02:51;;;;;;;2.30;1.47;;;8.80;99.90;10.80;99730.00;;;;5055184;28;20187;-69
2023/03/26 09:06:05;;;;;;;1.20;1.20;;;8.70;99.90;10.80;99734.00;;;;5055514;28;20270;-67
2023/03/26 09:09:15;;;;;;;1.27;1.27;;;8.80;99.90;10.70;99735.00;;;;5049737;28;20195;-68
2023/03/26 09:12:26;;;;;;;1.50;1.50;;;9.00;99.90;11.50;99735.00;;;;5053121;28;20562;-70
2023/03/26 09:15:47;;;;;;;1.80;1.80;;;9.10;99.90;10.20;99736.00;;;;5021358;28;20219;-70
2023/03/26 09:18:52;;;;;;;1.20;1.20;;;8.90;99.90;10.60;99743.00;;;;5048276;28;20186;-71
2023/03/26 09:22:13;;;;;;;1.47;1.47;;;8.90;99.90;10.10;99751.00;;;;5077769;28;20516;-69
2023/03/26 09:25:23;;;;;;;1.20;1.20;;;8.90;99.90;10.00;99734.00;;;;5062113;28;20183;-68
2023/03/26 09:28:32;;;;;;;1.00;1.00;;;8.50;99.90;10.00;99736.00;;;;5064428;28;20298;-69
2023/03/26 09:31:44;;;;;;;2.23;2.13;;;8.60;99.90;10.20;99749.00;;;;5052965;28;20577;-69
2023/03/26 09:34:38;;;;;;;1.20;1.20;;;8.60;99.90;9.90;99743.00;;;;5050620;28;20182;-69
2023/03/26 09:37:32;;;;;;;1.67;1.40;;;8.50;99.90;10.40;99752.00;;;;5053595;28;20219;-70
2023/03/26 09:40:17;;;;;;;1.20;1.20;;;8.60;99.90;10.20;99747.00;;;;5054742;28;20186;-70
2023/03/26 09:43:01;;;;;;;1.50;1.40;;;8.60;99.90;10.90;99760.00;;;;5054498;28;20180;-71
2023/03/26 09:45:44;;;;;;;1.20;1.20;;;8.90;99.90;10.80;99762.00;;;;5051256;28;20186;-71
2023/03/26 09:48:20;;;;;;;1.43;1.20;;;8.80;99.90;10.10;99759.00;;;;5047714;28;20235;-71
2023/03/26 09:51:10;;;;;;;1.50;1.50;;;8.90;99.90;10.30;99767.00;;;;5049822;28;20624;-71
2023/03/26 09:54:09;;;;;;;1.30;1.30;;;8.80;99.90;10.60;99765.00;;;;5054219;28;20225;-72
2023/03/26 09:57:09;;;;;;;1.10;1.10;;;8.90;99.90;10.10;99774.00;;;;5047064;28;20291;-72
2023/03/26 10:00:20;;;;;;;1.00;1.00;;;8.80;99.90;11.10;99771.00;;;;5046460;28;20176;-72
2023/03/26 10:03:22;;;;;;;1.20;1.20;;;8.80;99.90;10.00;99773.00;;;;5033274;28;20192;-72
2023/03/26 10:06:13;;;;;;;1.13;1.13;;;8.80;99.90;11.20;99775.00;;;;5043800;28;20183;-72
2023/03/26 10:13:20;;;;;;;1.20;1.20;;;9.10;99.90;10.70;99746.00;;;;4999603;28;20204;-72
2023/03/26 10:16:02;;;;;;;1.10;1.10;;;9.00;99.90;10.50;99742.00;;;;5000450;28;20207;-72
2023/03/26 10:18:49;;;;;;;1.30;1.20;;;8.90;99.90;10.40;99783.00;;;;5051725;28;20523;-72
2023/03/26 10:34:06;;;;;;;0.77;0.77;;;8.40;99.90;10.40;99833.00;;;;5076992;28;20572;-73
2023/03/26 10:37:18;;;;;;;0.90;0.90;;;8.60;99.90;10.80;99825.00;;;;5013662;28;20197;-73
2023/03/26 10:40:21;;;;;;;1.10;1.10;;;9.00;99.90;11.70;99823.00;;;;5041482;28;20204;-73
2023/03/26 10:43:33;;;;;;;1.40;1.40;;;9.20;99.90;11.70;99818.00;;;;5053143;28;20204;-71
2023/03/26 10:46:45;;;;;;;1.47;1.47;;;9.50;99.90;11.40;99819.00;;;;5049236;28;20175;-70
2023/03/26 10:49:48;;;;;;;2.23;2.13;;;9.40;99.90;10.40;99813.00;;;;5049952;28;20270;-72
2023/03/26 10:52:44;;;;;;;2.10;1.50;;;9.20;99.90;10.80;99823.00;;;;5042285;28;20206;-71
2023/03/26 10:55:39;;;;;;;1.83;1.73;;;9.10;99.90;10.40;99821.00;;;;5048406;28;20707;-73
2023/03/26 10:58:39;;;;;;;1.50;1.50;;;9.00;99.90;10.90;99792.00;;;;5031841;28;20179;-73
2023/03/26 11:01:15;;;;;;;1.50;1.50;;;9.00;99.90;10.60;99839.00;;;;5026592;28;20194;-73
2023/03/26 11:03:53;;;;;;;1.53;1.53;;;9.00;99.90;10.80;99821.00;;;;5032303;28;20205;-73
2023/03/26 11:06:50;;;;;;;1.70;1.70;;;9.00;99.90;10.90;99841.00;;;;5048304;28;20197;-73
2023/03/26 11:09:50;;;;;;;1.30;1.30;;;9.20;99.90;10.90;99839.00;;;;5048737;28;20178;-73
2023/03/26 11:12:42;;;;;;;1.40;1.40;;;9.30;99.90;10.90;99823.00;;;;5036616;28;20246;-73
2023/03/26 11:15:31;;;;;;;1.70;1.70;;;9.30;99.90;11.50;99850.00;;;;5056137;28;20188;-73
2023/03/26 11:19:00;;;;;;;1.67;1.60;;;9.40;99.90;11.00;99849.00;;;;5042193;28;20200;-73
2023/03/26 11:22:14;;;;;;;1.30;1.30;;;9.40;99.90;10.40;99848.00;;;;5007880;28;20665;-73
2023/03/26 11:25:21;;;;;;;1.87;1.77;;;9.20;99.90;10.50;99864.00;;;;4998890;28;20194;-73
2023/03/26 11:28:27;;;;;;;1.23;1.23;;;9.10;99.90;10.70;99835.00;;;;4972185;28;20209;-73
2023/03/26 11:31:05;;;;;;;1.40;1.40;;;9.10;99.90;10.20;99833.00;;;;4986544;28;20194;-73
2023/03/26 11:33:44;;;;;;;1.37;1.37;;;9.00;99.90;10.80;99861.00;;;;4983327;28;20818;-73
2023/03/26 11:36:18;;;;;;;1.00;1.00;;;9.10;99.90;11.40;99872.00;;;;5038388;28;20197;-74
2023/03/26 11:38:56;;;;;;;2.03;1.93;;;9.30;99.90;10.40;99876.00;;;;5055989;28;20199;-73
2023/03/26 11:41:29;;;;;;;1.80;1.70;;;9.50;99.90;9.60;99867.00;;;;5055346;28;20193;-73
2023/03/26 11:44:10;;;;;;;1.57;1.50;;;9.00;99.90;10.10;99877.00;;;;5048286;28;20183;-73
2023/03/26 11:47:03;;;;;;;1.00;1.00;;;9.10;99.90;11.00;99860.00;;;;5042673;28;20191;-73
2023/03/26 11:49:41;;;;;;;0.90;0.90;;;9.20;99.90;10.80;99874.00;;;;5027637;28;20714;-73
2023/03/26 11:52:32;;;;;;;5.30;1.83;;;9.40;99.90;10.80;99894.00;;;;5037418;28;20224;-73
2023/03/26 11:55:22;;;;;;;0.90;0.90;;;9.40;99.90;10.80;99896.00;;;;5064273;28;20230;-73
2023/03/26 11:58:26;;;;;;;1.10;1.10;;;9.40;99.90;11.20;99904.00;;;;5034154;28;20197;-73
2023/03/26 12:01:42;;;;;;;0.93;0.93;;;9.40;99.90;10.60;99902.00;;;;5017388;28;20536;-73
2023/03/26 12:04:42;;;;;;;1.77;1.27;;;9.40;99.90;10.80;99904.00;;;;5034806;28;20189;-73
2023/03/26 12:07:32;;;;;;;1.30;1.30;;;9.50;99.90;10.60;99905.00;;;;5032071;28;20177;-73
2023/03/26 12:10:04;;;;;;;1.00;1.00;;;9.40;99.90;11.30;99888.00;;;;5029531;28;20215;-73
2023/03/26 12:12:53;;;;;;;1.27;1.27;;;9.50;99.90;10.90;99918.00;;;;5016439;28;20209;-73
2023/03/26 12:15:42;;;;;;;1.00;1.00;;;9.50;99.90;11.30;99932.00;;;;5034645;28;20596;-73
2023/03/26 12:19:06;;;;;;;1.17;1.17;;;9.70;99.90;11.20;99896.00;;;;5029974;28;20215;-73
2023/03/26 12:22:40;;;;;;;1.20;1.20;;;9.70;99.90;11.10;99940.00;;;;5030409;28;20204;-73
2023/03/26 12:25:20;;;;;;;1.03;1.03;;;9.90;99.90;11.20;99937.00;;;;5034110;28;20182;-74
2023/03/26 12:28:04;;;;;;;1.00;1.00;;;9.80;99.90;12.00;99927.00;;;;5018725;28;20217;-73
2023/03/26 12:31:06;;;;;;;1.10;1.10;;;9.90;99.90;11.70;99963.00;;;;5035193;28;20226;-74
2023/03/26 12:34:15;;;;;;;1.00;1.00;;;10.20;99.90;11.10;99960.00;;;;5036135;28;20193;-73
2023/03/26 12:36:55;;;;;;;1.20;1.20;;;10.00;99.90;12.00;99960.00;;;;5020460;28;20190;-74
2023/03/26 12:39:35;;;;;;;1.00;1.00;;;10.10;99.90;11.50;99960.00;;;;5033338;28;20244;-74
2023/03/26 12:42:04;;;;;;;1.10;1.10;;;10.10;99.90;11.70;99968.00;;;;5052194;28;20197;-74
2023/03/26 12:44:45;;;;;;;1.00;1.00;;;10.10;99.90;11.80;99976.00;;;;5024369;28;20208;-73
2023/03/26 12:47:26;;;;;;;1.30;1.30;;;10.20;99.90;11.40;99979.00;;;;5032652;28;20214;-73
2023/03/26 12:49:55;;;;;;;1.00;1.00;;;10.10;99.90;11.90;99965.00;;;;5025890;28;20186;-73
2023/03/26 12:52:45;;;;;;;1.03;1.03;;;10.10;99.90;11.70;99973.00;;;;5016714;28;20295;-73
2023/03/26 12:55:41;;;;;;;1.00;1.00;;;10.10;99.90;12.50;99976.00;;;;5031152;28;20194;-73
2023/03/26 12:58:54;;;;;;;0.90;0.90;;;10.30;99.90;11.70;99988.00;;;;5066140;28;20249;-74
2023/03/26 13:01:40;;;;;;;1.00;1.00;;;10.40;99.90;11.90;99964.00;;;;5019606;28;20206;-74
2023/03/26 13:04:43;;;;;;;1.00;1.00;;;10.20;99.90;12.00;99952.00;;;;5050102;28;20191;-74
2023/03/26 13:07:50;;;;;;;1.50;1.40;;;10.30;99.90;11.80;100002.00;;;;5031113;28;20188;-74
2023/03/26 13:10:48;;;;;;;1.63;1.53;;;10.50;99.90;13.30;99980.00;;;;4992122;28;20285;-74
2023/03/26 13:14:06;;;;;;;1.27;1.27;;;10.70;99.90;12.90;100012.00;;;;4990400;28;20772;-73
2023/03/26 13:16:58;;;;;;;1.50;1.47;;;11.10;99.90;13.90;100016.00;;;;5023180;28;20270;-73
2023/03/26 13:20:13;;;;;;;2.60;2.13;;;11.20;99.90;13.40;100010.00;;;;5064952;28;20187;-74
2023/03/26 13:23:47;;;;;;;2.27;2.07;;;11.10;99.90;13.80;100033.00;;;;5020747;28;20266;-73
2023/03/26 13:30:02;;;;;;;1.50;1.50;;;11.10;99.90;14.10;100028.00;;;;5010869;28;20218;-74
2023/03/26 13:32:48;;;;;;;1.80;1.73;;;11.40;99.90;13.70;100034.00;;;;4987268;28;20212;-74
2023/03/26 13:35:32;;;;;;;1.60;1.50;;;11.50;99.90;13.80;100010.00;;;;4992157;28;20199;-74
2023/03/26 13:41:26;;;;;;;1.30;1.30;;;11.30;99.90;13.60;100033.00;;;;5011262;28;20302;-73
2023/03/26 13:44:26;;;;;;;2.30;1.83;;;11.30;99.90;13.50;100033.00;;;;5009574;28;20211;-74
2023/03/26 13:47:24;;;;;;;1.30;1.30;;;11.10;99.90;13.10;99990.00;;;;5002590;28;20192;-74
2023/03/26 13:50:21;;;;;;;2.83;2.63;;;10.90;99.90;12.70;100038.00;;;;4994020;28;20624;-73
2023/03/26 13:53:08;;;;;;;1.30;1.30;;;11.00;99.90;12.80;100042.00;;;;5007435;28;20234;-74
2023/03/26 13:55:56;;;;;;;2.60;1.53;;;10.80;99.90;12.80;100041.00;;;;5011177;28;20231;-74
2023/03/26 13:58:42;;;;;;;1.33;1.33;;;10.90;99.90;13.50;100051.00;;;;5035662;28;20194;-74
2023/03/26 14:01:46;;;;;;;2.03;1.93;;;11.10;99.90;13.40;100055.00;;;;5028922;28;20664;-74
2023/03/26 14:04:53;;;;;;;1.20;1.20;;;11.20;99.90;13.50;100062.00;;;;5031763;28;20297;-73
2023/03/26 14:07:51;;;;;;;1.20;1.20;;;11.10;99.90;13.90;100053.00;;;;5027931;28;20195;-74
2023/03/26 14:10:34;;;;;;;1.40;1.40;;;11.20;99.90;13.70;100069.00;;;;5036418;28;20197;-73
2023/03/26 14:13:16;;;;;;;1.43;1.43;;;11.50;99.90;13.00;100077.00;;;;5020328;28;20205;-74
2023/03/26 14:16:18;;;;;;;2.20;2.10;;;11.40;99.90;12.70;100074.00;;;;5031703;28;20194;-74
2023/03/26 14:19:35;;;;;;;1.50;1.50;;;11.10;99.90;13.20;100061.00;;;;5018714;28;20679;-74
2023/03/26 14:22:32;;;;;;;1.10;1.10;;;11.00;99.90;13.50;100043.00;;;;5055761;28;20222;-73
2023/03/26 14:25:27;;;;;;;1.40;1.40;;;11.10;99.90;12.70;100083.00;;;;5031211;28;20218;-74
2023/03/26 14:28:32;;;;;;;1.40;1.40;;;10.90;99.90;12.80;100085.00;;;;5032118;28;20274;-74
2023/03/26 14:31:11;;;;;;;8.50;1.83;;;10.80;99.90;11.70;100079.00;;;;5025563;28;20186;-74
2023/03/26 14:34:32;;;;;;;3.93;1.30;;;10.50;99.90;11.70;100079.00;;;;5067581;28;20197;-73
2023/03/26 14:40:24;;;;;;;0.80;0.80;;;10.00;99.90;12.60;100096.00;;;;5028040;28;20197;-73
2023/03/26 14:43:25;;;;;;;1.07;1.07;;;10.20;99.90;11.90;100097.00;;;;5032656;28;20242;-73
2023/03/26 14:46:35;;;;;;;0.83;0.83;;;10.20;99.90;12.00;100095.00;;;;5025803;28;20185;-73
2023/03/26 14:50:19;;;;;;;1.73;1.63;;;10.10;99.90;11.10;100097.00;;;;5036744;28;20190;-73
2023/03/26 14:52:58;;;;;;;1.10;1.10;;;10.00;99.90;11.10;100121.00;;;;5000861;28;20214;-73
2023/03/26 14:55:42;;;;;;;1.87;1.63;;;9.70;99.90;10.90;100131.00;;;;5020310;28;20201;-73
2023/03/26 14:58:24;;;;;;;1.73;1.63;;;9.60;99.90;10.70;100136.00;;;;5029582;28;20599;-73
2023/03/26 15:01:37;;;;;;;2.63;2.07;;;9.50;99.90;11.00;100124.00;;;;5062298;28;20196;-73
2023/03/26 15:04:37;;;;;;;1.53;1.50;;;9.50;99.90;11.00;100149.00;;;;5011679;28;20195;-73
2023/03/26 15:07:40;;;;;;;1.60;1.57;;;9.60;99.90;12.00;100158.00;;;;5039741;28;20194;-73
2023/03/26 15:10:51;;;;;;;2.57;2.37;;;10.00;99.90;11.50;100154.00;;;;5029781;28;20186;-74
2023/03/26 15:14:08;;;;;;;6.53;1.83;;;9.90;99.90;11.00;100167.00;;;;5032722;28;20208;-74
2023/03/26 15:17:34;;;;;;;1.13;1.13;;;10.00;99.90;11.40;100147.00;;;;4989772;28;20217;-73
2023/03/26 15:20:30;;;;;;;2.73;1.83;;;9.80;99.90;11.00;100182.00;;;;5017953;28;20204;-73
2023/03/26 15:23:47;;;;;;;1.50;1.40;;;9.80;99.90;11.10;100193.00;;;;5038148;28;20734;-70
2023/03/26 15:27:03;;;;;;;1.33;1.17;;;9.80;99.90;11.50;100200.00;;;;5034265;28;20220;-72
2023/03/26 15:29:55;;;;;;;4.03;1.40;;;9.80;99.90;12.20;100176.00;;;;4993835;28;20243;-72
2023/03/26 15:33:13;;;;;;;0.90;0.90;;;9.90;99.90;12.00;100211.00;;;;4994149;28;20224;-72
2023/03/26 15:36:03;;;;;;;1.90;1.80;;;10.00;99.90;11.50;100218.00;;;;4994297;28;20189;-72
2023/03/26 15:43:05;;;;;;;0.80;0.80;;;10.10;99.90;11.80;100231.00;;;;5016111;28;20218;-71
2023/03/26 15:45:58;;;;;;;2.37;1.53;;;10.00;99.90;11.20;100234.00;;;;5030622;28;20226;-71
2023/03/26 15:48:52;;;;;;;1.13;1.13;;;9.80;99.90;11.90;100249.00;;;;5034569;28;20204;-71
2023/03/26 15:51:48;;;;;;;3.03;1.53;;;9.90;99.90;12.20;100263.00;;;;5032844;28;20659;-71
2023/03/26 15:55:04;;;;;;;1.10;1.10;;;10.10;99.90;11.40;100276.00;;;;5028662;28;20268;-71
2023/03/26 15:58:11;;;;;;;9.87;9.30;;;9.90;99.90;12.10;100282.00;;;;5031830;28;20191;-72
2023/03/26 16:01:29;;;;;;;1.53;1.33;;;9.90;99.90;11.90;100318.00;;;;5020680;28;20203;-71
2023/03/26 16:04:40;;;;;;;1.00;1.00;;;9.90;99.90;11.90;100332.00;;;;5019080;28;20196;-71
2023/03/26 16:07:46;;;;;;;0.87;0.87;;;9.90;99.90;11.50;100336.00;;;;5032396;28;20217;-71
2023/03/26 16:10:37;;;;;;;1.10;1.10;;;9.80;99.90;11.90;100359.00;;;;4996606;28;20187;-71
2023/03/26 16:13:38;;;;;;;0.97;0.97;;;10.00;99.90;11.60;100367.00;;;;4990965;28;20210;-71
2023/03/26 16:16:22;;;;;;;3.70;1.27;;;9.90;99.90;12.30;100369.00;;;;5033526;28;20206;-71
2023/03/26 16:19:27;;;;;;;1.37;1.37;;;10.00;99.90;12.20;100375.00;;;;5034605;28;20191;-71
2023/03/26 16:22:52;;;;;;;0.77;0.77;;;10.30;99.90;12.40;100356.00;;;;5031069;28;20206;-71
2023/03/26 16:26:33;;;;;;;0.70;0.70;;;10.10;99.90;11.80;100379.00;;;;5035456;28;20194;-71
2023/03/26 16:29:35;;;;;;;0.60;0.60;;;10.20;99.90;12.30;100374.00;;;;5029462;28;20224;-71
2023/03/26 16:32:28;;;;;;;0.80;0.80;;;10.20;99.90;13.10;100394.00;;;;5034230;28;20697;-71
2023/03/26 16:35:20;;;;;;;4.27;1.60;;;10.30;99.90;12.70;100400.00;;;;5017094;28;20172;-71
2023/03/26 16:38:10;;;;;;;1.20;1.17;;;10.30;99.90;11.60;100408.00;;;;5042986;28;20217;-71
2023/03/26 16:41:13;;;;;;;2.83;1.07;;;10.30;99.90;11.90;100404.00;;;;5034884;28;20198;-71
2023/03/26 16:44:23;;;;;;;1.10;1.10;;;10.10;99.90;12.00;100422.00;;;;5030817;28;20284;-71
2023/03/26 16:47:26;;;;;;;0.93;0.93;;;10.20;99.90;12.60;100426.00;;;;5029101;28;20252;-71
2023/03/26 16:50:20;;;;;;;1.00;1.00;;;10.20;99.90;12.70;100420.00;;;;5021207;28;20237;-71
2023/03/26 16:53:15;;;;;;;0.93;0.93;;;10.40;99.90;13.20;100457.00;;;;5025418;28;20576;-71
2023/03/26 16:59:55;;;;;;;12.10;1.07;;;10.20;99.90;12.00;100463.00;;;;5012135;28;20652;-71
2023/03/26 17:03:02;;;;;;;1.27;1.20;;;10.00;99.90;11.50;100478.00;;;;5013682;28;20205;-71
2023/03/26 17:06:02;;;;;;;2.17;1.17;;;10.00;99.90;12.00;100471.00;;;;5009280;28;20668;-71
2023/03/26 17:11:59;;;;;;;1.50;0.73;;;9.90;99.90;12.20;100471.00;;;;5034074;28;20682;-71
2023/03/26 17:14:55;;;;;;;0.50;0.50;;;9.90;99.90;11.70;100472.00;;;;5032565;28;20212;-71
2023/03/26 17:17:38;;;;;;;0.60;0.60;;;9.70;99.90;12.20;100481.00;;;;5065504;28;20271;-71
2023/03/26 17:20:58;;;;;;;0.70;0.70;;;9.70;99.90;11.80;100488.00;;;;5022374;28;20272;-71
2023/03/26 17:23:52;;;;;;;0.60;0.60;;;9.50;99.90;12.10;100534.00;;;;5027172;28;20196;-71
2023/03/26 17:27:32;;;;;;;1.10;0.90;;;9.60;99.90;12.20;100539.00;;;;5058268;28;20557;-71
2023/03/26 17:30:36;;;;;;;2.83;1.17;;;9.70;99.90;12.20;100521.00;;;;4971721;28;20190;-70
2023/03/26 17:33:08;;;;;;;0.50;0.50;;;9.70;99.90;12.00;100556.00;;;;4991286;28;20242;-70
2023/03/26 17:36:14;;;;;;;2.23;1.23;;;9.80;99.90;11.50;100550.00;;;;4991759;28;20230;-70
2023/03/26 17:38:51;;;;;;;0.63;0.63;;;9.50;99.90;12.10;100579.00;;;;4974762;28;20245;-70
2023/03/26 17:42:11;;;;;;;2.03;0.77;;;9.60;99.90;11.80;100551.00;;;;4974654;28;20233;-70
2023/03/26 17:44:54;;;;;;;0.77;0.77;;;9.50;99.90;11.50;100591.00;;;;4975495;28;20557;-70
2023/03/26 17:47:38;;;;;;;1.17;0.63;;;9.40;99.90;11.30;100595.00;;;;5013329;28;20273;-70
2023/03/26 17:50:13;;;;;;;0.73;0.73;;;9.30;99.90;11.30;100581.00;;;;5031701;28;20187;-70
2023/03/26 17:53:02;;;;;;;0.53;0.53;;;9.30;99.90;10.90;100622.00;;;;5033143;28;20205;-70
2023/03/26 17:55:37;;;;;;;0.30;0.30;;;9.10;99.90;11.80;100575.00;;;;5032093;28;20184;-70
2023/03/26 17:58:28;;;;;;;0.47;0.40;;;9.10;99.90;12.40;100628.00;;;;5032130;28;20236;-70
2023/03/26 18:01:36;;;;;;;0.30;0.30;;;9.40;99.90;11.70;100609.00;;;;5021436;28;20181;-70
2023/03/26 18:04:14;;;;;;;1.67;1.57;;;9.50;99.90;11.50;100634.00;;;;5026063;28;20220;-70
2023/03/26 18:07:05;;;;;;;0.30;0.30;;;9.30;99.90;11.50;100646.00;;;;5031686;28;20191;-70
2023/03/26 18:10:11;;;;;;;1.60;0.57;;;9.40;99.90;11.90;100660.00;;;;5029918;28;20550;-70
2023/03/26 18:13:15;;;;;;;0.20;0.20;;;9.50;99.90;11.40;100671.00;;;;5018377;28;20225;-70
2023/03/26 18:16:08;;;;;;;2.00;1.90;;;9.20;99.90;11.70;100669.00;;;;5031440;28;20192;-70
2023/03/26 18:18:48;;;;;;;2.30;2.20;;;9.20;99.90;11.10;100678.00;;;;5032330;28;20181;-69
2023/03/26 18:21:37;;;;;;;0.20;0.20;;;9.10;99.90;12.00;100696.00;;;;5025548;28;20274;-69
2023/03/26 18:24:06;;;;;;;0.30;0.30;;;9.30;99.90;11.30;100702.00;;;;5047994;28;20180;-69
2023/03/26 18:27:13;;;;;;;0.20;0.20;;;9.20;99.90;11.20;100705.00;;;;5018600;28;20192;-69
2023/03/26 18:29:57;;;;;;;2.10;1.00;;;9.20;99.90;11.20;100715.00;;;;5017267;28;20222;-69
2023/03/26 18:32:29;;;;;;;0.87;0.40;;;9.10;99.90;11.30;100717.00;;;;5032599;28;20220;-69
2023/03/26 18:35:15;;;;;;;0.20;0.20;;;9.20;99.90;11.00;100715.00;;;;5048487;28;20219;-69
2023/03/26 18:37:44;;;;;;;0.40;0.40;;;8.90;99.90;11.50;100723.00;;;;5031942;28;20265;-69
2023/03/26 18:40:17;;;;;;;2.00;0.87;;;9.10;99.90;11.00;100738.00;;;;5032747;28;20549;-70
2023/03/26 18:42:56;;;;;;;2.10;1.23;;;8.90;99.90;11.10;100735.00;;;;5031930;28;20258;-69
2023/03/26 18:45:36;;;;;;;0.20;0.20;;;8.80;99.90;10.80;100729.00;;;;5024061;28;20187;-69
2023/03/26 18:48:09;;;;;;;0.77;0.77;;;8.70;99.90;10.80;100758.00;;;;5031810;28;20276;-69
2023/03/26 18:50:40;;;;;;;0.43;0.43;;;8.80;99.90;11.30;100777.00;;;;5031535;28;20713;-69
2023/03/26 18:53:22;;;;;;;0.20;0.20;;;8.90;99.90;11.00;100780.00;;;;5031325;28;20554;-69
2023/03/26 18:55:51;;;;;;;0.73;0.73;;;8.80;99.90;10.20;100773.00;;;;5032025;28;20291;-69
2023/03/26 18:58:34;;;;;;;0.73;0.53;;;8.60;99.90;10.60;100723.00;;;;5028036;28;20649;-69
2023/03/26 19:01:08;;;;;;;0.77;0.67;;;8.60;99.90;10.90;100787.00;;;;5033574;28;20179;-70
2023/03/26 19:03:39;;;;;;;0.90;0.90;;;8.70;99.90;10.60;100792.00;;;;5034733;28;20234;-69
2023/03/26 19:06:09;;;;;;;0.20;0.20;;;8.70;99.90;10.80;100807.00;;;;5035168;28;20527;-69
2023/03/26 19:08:40;;;;;;;0.40;0.40;;;8.50;99.90;10.80;100814.00;;;;5035157;28;20661;-69
2023/03/26 19:11:09;;;;;;;0.20;0.20;;;8.60;99.90;11.00;100828.00;;;;5032626;28;20656;-69
2023/03/26 19:13:40;;;;;;;3.00;0.63;;;8.70;99.90;9.30;100847.00;;;;5035250;28;20561;-69
2023/03/26 19:16:32;;;;;;;4.60;0.60;;;8.30;99.90;10.30;100857.00;;;;5034747;28;20180;-69
2023/03/26 19:19:05;;;;;;;3.03;1.90;;;8.30;99.90;9.80;100852.00;;;;5034968;28;20669;-69
2023/03/26 19:21:33;;;;;;;1.13;1.00;;;8.20;99.90;9.90;100852.00;;;;5034015;28;20614;-69
2023/03/26 19:24:01;;;;;;;0.40;0.40;;;8.20;99.90;9.90;100852.00;;;;5034399;28;20183;-69
2023/03/26 19:26:27;;;;;;;0.20;0.20;;;8.10;99.90;10.20;100861.00;;;;5034399;28;20241;-69
2023/03/26 19:28:56;;;;;;;13.53;2.43;;;8.20;99.90;9.60;100860.00;;;;5035017;28;20281;-69
2023/03/26 19:31:36;;;;;;;0.47;0.47;;;8.10;99.90;9.30;100828.00;;;;5016957;28;20212;-69
2023/03/26 19:34:16;;;;;;;2.10;0.47;;;7.90;99.90;9.30;100871.00;;;;5019786;28;20196;-69
2023/03/26 19:37:03;;;;;;;0.30;0.30;;;7.80;99.90;9.70;100875.00;;;;5036000;28;20179;-69
2023/03/26 19:39:50;;;;;;;0.87;0.40;;;7.80;99.90;9.70;100873.00;;;;5032694;28;20191;-69
2023/03/26 19:42:30;;;;;;;0.87;0.30;;;8.00;99.90;9.60;100905.00;;;;5035371;28;20191;-69
2023/03/26 19:45:00;;;;;;;0.30;0.30;;;7.80;99.90;9.30;100909.00;;;;5034645;28;20711;-69
2023/03/26 19:47:43;;;;;;;0.60;0.60;;;7.80;99.90;9.60;100941.00;;;;5034146;28;20277;-69
2023/03/26 19:50:25;;;;;;;0.33;0.33;;;7.80;99.90;9.80;100946.00;;;;5034462;28;20198;-69
2023/03/26 19:53:12;;;;;;;1.20;1.17;;;7.80;99.90;10.20;100962.00;;;;5034610;28;20199;-69
2023/03/26 19:55:40;;;;;;;0.73;0.73;;;7.90;99.90;9.40;100986.00;;;;5032330;28;20239;-69
2023/03/26 19:58:10;;;;;;;0.10;0.10;;;7.70;99.90;10.10;100975.00;;;;5034395;28;20191;-69
2023/03/26 20:00:37;;;;;;;0.30;0.30;;;7.90;99.90;10.00;100994.00;;;;5034588;28;20191;-69
2023/03/26 20:03:04;;;;;;;1.03;0.63;;;7.90;99.90;10.30;100994.00;;;;5035410;28;20202;-69
2023/03/26 20:05:33;;;;;;;0.77;0.60;;;8.00;99.90;10.20;100992.00;;;;5033719;28;20183;-69
2023/03/26 20:08:11;;;;;;;0.20;0.20;;;8.00;99.90;10.70;100989.00;;;;5021196;28;20192;-69
2023/03/26 20:10:37;;;;;;;2.07;0.43;;;8.10;99.90;11.10;101001.00;;;;5066483;28;20657;-69
2023/03/26 20:13:15;;;;;;;0.30;0.30;;;8.30;99.90;10.50;101019.00;;;;5034101;28;20207;-69
2023/03/26 20:15:48;;;;;;;0.20;0.20;;;8.30;99.90;10.80;100998.00;;;;5018296;28;20248;-69
2023/03/26 20:18:14;;;;;;;0.50;0.50;;;8.30;99.90;10.60;101004.00;;;;5017607;28;20548;-69
2023/03/26 20:20:40;;;;;;;1.50;1.33;;;8.20;99.90;9.90;101015.00;;;;5034206;28;20644;-69
2023/03/26 20:23:16;;;;;;;0.33;0.33;;;8.10;99.90;10.20;101013.00;;;;5033799;28;20187;-69
2023/03/26 20:26:10;;;;;;;0.60;0.60;;;8.00;99.90;10.20;101024.00;;;;5034111;28;20187;-69
2023/03/26 20:28:58;;;;;;;0.40;0.40;;;8.10;99.90;9.60;101018.00;;;;5017315;28;20274;-69
2023/03/26 20:31:54;;;;;;;0.20;0.20;;;7.90;99.90;10.20;101031.00;;;;5033173;28;20199;-69
2023/03/26 20:34:48;;;;;;;0.20;0.20;;;8.00;99.90;10.90;101029.00;;;;5041687;28;20189;-69
2023/03/26 20:37:37;;;;;;;0.23;0.23;;;8.10;99.90;10.10;101043.00;;;;5017745;28;20175;-69
2023/03/26 20:40:08;;;;;;;0.20;0.20;;;8.00;99.90;9.80;101022.00;;;;5034757;28;20210;-69
2023/03/26 20:42:41;;;;;;;0.37;0.37;;;7.90;99.90;9.90;101047.00;;;;5049758;28;20214;-69
2023/03/26 20:45:25;;;;;;;0.97;0.97;;;7.80;99.90;9.90;101067.00;;;;5032613;28;20228;-69
2023/03/26 20:47:58;;;;;;;0.40;0.40;;;7.70;99.90;9.50;101012.00;;;;5034618;28;20608;-69
2023/03/26 20:50:25;;;;;;;0.30;0.30;;;7.60;99.90;9.20;101069.00;;;;5032712;28;20276;-69
2023/03/26 20:52:52;;;;;;;0.30;0.30;;;7.40;99.90;9.50;101050.00;;;;5032893;28;20245;-69
2023/03/26 20:55:22;;;;;;;1.47;1.47;;;7.40;99.90;9.20;101068.00;;;;5032734;28;20290;-69
2023/03/26 20:57:51;;;;;;;2.60;0.80;;;7.20;99.90;9.40;101034.00;;;;5021474;28;20189;-69
